Time;durP1;ratioP1;P1;durP2;ratioP2;P2;SDS_P1;SDS_P2;PMS_P1;PMS_P2;Temp;Humidity;BMP_temperature;BMP_pressure;BME280_temperature;BME280_humidity;BME280_pressure;Samples;Min_cycle;Max_cycle;Signal;HPM_P1;HPM_P2
2021/07/11 00:00:17;;;;;;;15.15;5.40;;;;;;;21.41;57.11;100138.81;5051021;28;20072;-64
2021/07/11 00:02:43;;;;;;;9.75;4.88;;;;;;;21.49;57.26;100167.03;5042639;28;20517;-64
2021/07/11 00:05:13;;;;;;;16.58;5.55;;;;;;;21.41;57.30;100156.69;5036137;28;20382;-63
2021/07/11 00:07:40;;;;;;;;;;;;;;;21.24;57.11;100145.63;5042840;28;20541;-64
2021/07/11 00:10:13;;;;;;;11.02;5.88;;;;;;;21.29;57.25;100149.00;5034958;28;19920;-63
2021/07/11 00:12:42;;;;;;;15.25;5.70;;;;;;;21.36;57.37;100147.59;5034260;28;20088;-65
2021/07/11 00:15:12;;;;;;;16.65;5.50;;;;;;;21.40;57.33;100146.53;5044519;28;20133;-59
2021/07/11 00:17:41;;;;;;;14.40;7.13;;;;;;;21.39;57.40;100144.03;5041977;28;20125;-59
2021/07/11 00:20:10;;;;;;;10.27;4.82;;;;;;;21.41;57.44;100144.50;5046204;28;20133;-61
2021/07/11 00:22:38;;;;;;;14.13;6.10;;;;;;;21.36;57.33;100142.75;5038445;28;20127;-62
2021/07/11 00:25:07;;;;;;;14.10;5.85;;;;;;;21.39;57.59;100144.03;5033367;28;20076;-62
2021/07/11 00:27:34;;;;;;;14.98;5.75;;;;;;;21.30;57.60;100138.50;5041501;28;20576;-61
2021/07/11 00:30:01;;;;;;;12.98;5.07;;;;;;;21.09;57.64;100112.31;5039399;28;20136;-60
2021/07/11 00:32:27;;;;;;;17.42;6.25;;;;;;;21.34;57.69;100147.13;5045224;28;20130;-60
2021/07/11 00:34:55;;;;;;;18.30;6.97;;;;;;;21.29;57.74;100151.03;5049506;28;20102;-60
2021/07/11 00:37:21;;;;;;;16.40;7.75;;;;;;;21.27;58.07;100150.59;5047556;28;20128;-61
2021/07/11 00:39:52;;;;;;;40.13;17.45;;;;;;;21.26;57.94;100143.22;5032054;28;20049;-60
2021/07/11 00:42:19;;;;;;;26.50;13.63;;;;;;;21.15;57.79;100125.06;5036690;28;20128;-65
2021/07/11 00:44:46;;;;;;;36.15;15.48;;;;;;;21.29;57.95;100134.81;5051212;28;20121;-66
2021/07/11 00:47:14;;;;;;;22.45;8.55;;;;;;;21.24;58.08;100114.38;5043597;28;20505;-67
2021/07/11 00:49:42;;;;;;;15.57;5.05;;;;;;;21.32;57.89;100130.44;5042482;28;20455;-67
2021/07/11 00:52:12;;;;;;;21.65;7.40;;;;;;;21.39;57.91;100118.47;5033760;28;20069;-65
2021/07/11 00:54:39;;;;;;;11.05;5.88;;;;;;;21.31;57.81;100100.38;5049267;28;20099;-67
2021/07/11 00:57:06;;;;;;;11.90;5.15;;;;;;;21.48;57.79;100110.59;5035000;28;20059;-64
2021/07/11 00:59:34;;;;;;;11.73;5.47;;;;;;;21.44;57.76;100098.34;5037744;28;20160;-64
2021/07/11 01:02:16;;;;;;;11.60;5.90;;;;;;;21.49;57.69;100098.88;5040936;28;20068;-64
2021/07/11 01:04:52;;;;;;;23.98;9.85;;;;;;;21.50;57.69;100094.00;5039413;28;20045;-66
2021/07/11 01:07:29;;;;;;;17.17;9.95;;;;;;;21.42;57.77;100087.31;5034526;28;20128;-64
2021/07/11 01:10:02;;;;;;;23.98;10.52;;;;;;;21.38;57.80;100085.59;5033639;28;20121;-65
2021/07/11 01:12:32;;;;;;;15.93;7.65;;;;;;;21.37;58.02;100093.28;5034664;28;20085;-65
2021/07/11 01:15:00;;;;;;;26.80;9.52;;;;;;;21.35;58.13;100092.81;5035559;28;20132;-65
2021/07/11 01:17:29;;;;;;;20.77;7.30;;;;;;;21.29;58.22;100083.69;5045083;28;20479;-65
2021/07/11 01:20:37;;;;;;;18.77;8.23;;;;;;;21.15;57.97;100065.44;5042223;28;20044;-63
2021/07/11 01:23:07;;;;;;;17.10;6.50;;;;;;;21.21;58.28;100075.34;5033752;28;20137;-62
2021/07/11 01:25:42;;;;;;;12.63;5.72;;;;;;;21.15;58.40;100076.81;5042748;28;20072;-62
2021/07/11 01:28:13;;;;;;;10.40;5.95;;;;;;;21.13;58.45;100080.03;5031643;28;20132;-62
2021/07/11 01:30:42;;;;;;;11.27;6.28;;;;;;;21.14;58.54;100080.84;5039834;28;20396;-62
2021/07/11 01:33:10;;;;;;;16.58;6.50;;;;;;;21.12;58.73;100075.50;5036544;28;20128;-63
2021/07/11 01:35:40;;;;;;;19.23;7.00;;;;;;;21.05;58.79;100073.31;5034677;28;20080;-63
2021/07/11 01:38:08;;;;;;;13.80;6.25;;;;;;;21.03;58.58;100070.00;5035234;28;20076;-63
2021/07/11 01:40:35;;;;;;;10.63;6.63;;;;;;;21.08;58.69;100076.63;5036282;28;20040;-65
2021/07/11 01:43:04;;;;;;;11.55;6.18;;;;;;;21.05;58.80;100069.63;5043179;28;20569;-64
2021/07/11 01:45:31;;;;;;;21.80;6.93;;;;;;;20.95;58.81;100062.47;5039617;28;20096;-62
2021/07/11 01:47:58;;;;;;;24.95;5.25;;;;;;;21.03;58.98;100052.97;5042313;28;20124;-61
2021/07/11 01:50:26;;;;;;;13.68;5.38;;;;;;;21.17;58.84;100048.88;5042369;28;20508;-63
2021/07/11 01:52:53;;;;;;;17.13;6.22;;;;;;;21.20;58.68;100037.63;5038697;28;20475;-63
2021/07/11 01:55:21;;;;;;;14.77;5.20;;;;;;;21.27;58.58;100052.00;5042484;28;20049;-61
2021/07/11 01:57:49;;;;;;;16.05;5.97;;;;;;;21.25;58.52;100053.56;5038421;28;20459;-63
2021/07/11 02:00:18;;;;;;;12.68;5.70;;;;;;;21.22;58.86;100048.59;5038654;28;20049;-63
2021/07/11 02:02:46;;;;;;;14.68;6.00;;;;;;;21.23;58.61;100067.28;5040406;28;20065;-64
2021/07/11 02:05:14;;;;;;;11.15;5.75;;;;;;;21.17;58.96;100063.09;5041863;28;20128;-63
2021/07/11 02:07:41;;;;;;;16.80;6.03;;;;;;;21.15;58.88;100077.63;5037295;28;20154;-61
2021/07/11 02:10:14;;;;;;;12.82;5.30;;;;;;;21.10;59.08;100066.56;5035851;28;20046;-59
2021/07/11 02:12:47;;;;;;;14.40;5.88;;;;;;;21.03;58.99;100055.81;5034198;28;20125;-60
2021/07/11 02:15:14;;;;;;;11.10;6.28;;;;;;;21.05;59.29;100066.81;5042220;28;20053;-61
2021/07/11 02:17:45;;;;;;;9.02;4.88;;;;;;;21.00;59.16;100064.25;5033927;28;20052;-61
2021/07/11 02:20:12;;;;;;;11.95;5.55;;;;;;;20.80;59.61;100049.06;5033818;28;20160;-63
2021/07/11 02:22:42;;;;;;;16.75;6.18;;;;;;;20.91;59.54;100067.22;5035632;28;20124;-62
2021/07/11 02:25:11;;;;;;;15.00;5.82;;;;;;;20.86;59.64;100061.00;5032329;28;20477;-62
2021/07/11 02:27:39;;;;;;;15.00;6.38;;;;;;;20.84;59.72;100058.50;5041405;28;20128;-63
2021/07/11 02:30:11;;;;;;;11.48;5.47;;;;;;;20.85;59.72;100063.00;5036742;28;20080;-63
2021/07/11 02:32:43;;;;;;;18.33;7.25;;;;;;;20.85;59.87;100074.34;5032384;28;21973;-63
2021/07/11 02:35:14;;;;;;;11.05;5.72;;;;;;;20.67;59.92;100044.66;5035325;28;20136;-63
2021/07/11 02:37:50;;;;;;;14.32;6.65;;;;;;;20.81;59.85;100074.25;5045085;28;20485;-61
2021/07/11 02:40:18;;;;;;;12.73;6.85;;;;;;;20.74;60.04;100056.19;5074838;28;20118;-63
2021/07/11 02:42:46;;;;;;;10.45;6.30;;;;;;;20.86;59.82;100076.03;5035892;28;20124;-61
2021/07/11 02:45:16;;;;;;;18.83;6.85;;;;;;;20.86;59.82;100076.03;5034097;28;20049;-62
2021/07/11 02:47:45;;;;;;;10.50;5.80;;;;;;;20.87;59.97;100066.31;5040182;28;20131;-62
2021/07/11 02:50:16;;;;;;;15.07;7.53;;;;;;;20.87;59.85;100063.47;5039039;28;20125;-62
2021/07/11 02:52:43;;;;;;;17.33;6.68;;;;;;;20.87;59.83;100071.16;5030627;28;20488;-62
2021/07/11 02:55:17;;;;;;;15.38;7.15;;;;;;;20.84;60.00;100069.88;5041619;28;20135;-62
2021/07/11 02:57:52;;;;;;;18.38;6.10;;;;;;;20.77;59.82;100061.16;5031388;28;20077;-62
2021/07/11 03:00:20;;;;;;;16.08;6.15;;;;;;;20.71;60.67;100045.56;5036092;28;20508;-63
2021/07/11 03:02:47;;;;;;;18.08;6.72;;;;;;;20.84;60.12;100067.03;5030518;28;20103;-63
2021/07/11 03:05:21;;;;;;;12.52;6.35;;;;;;;20.87;60.16;100066.31;5039432;28;20076;-63
2021/07/11 03:07:49;;;;;;;14.90;5.57;;;;;;;20.93;60.14;100067.69;5032770;28;20370;-64
2021/07/11 03:10:17;;;;;;;11.07;5.38;;;;;;;20.98;60.18;100073.09;5033882;28;20045;-66
2021/07/11 03:12:49;;;;;;;12.82;5.50;;;;;;;20.93;60.07;100049.84;5047160;28;20048;-64
2021/07/11 03:15:18;;;;;;;12.32;5.18;;;;;;;20.97;59.76;100053.59;5041402;28;20138;-65
2021/07/11 03:17:47;;;;;;;13.23;5.72;;;;;;;20.99;60.19;100049.22;5041216;28;20081;-67
2021/07/11 03:20:15;;;;;;;17.48;5.75;;;;;;;21.01;59.88;100055.34;5035319;28;20493;-70
2021/07/11 03:22:43;;;;;;;14.90;6.93;;;;;;;21.04;60.03;100050.97;5035054;28;20160;-71
2021/07/11 03:25:12;;;;;;;14.30;6.18;;;;;;;20.85;59.98;100014.75;5040194;28;20171;-72
2021/07/11 03:27:40;;;;;;;13.98;6.35;;;;;;;20.88;59.76;100021.72;5051991;28;20047;-68
2021/07/11 03:30:11;;;;;;;14.60;5.68;;;;;;;21.10;59.88;100054.38;5035988;28;20045;-66
2021/07/11 03:32:53;;;;;;;11.63;5.13;;;;;;;21.09;59.91;100062.03;5042831;28;20077;-66
2021/07/11 03:35:29;;;;;;;8.73;5.18;;;;;;;20.98;59.86;100050.41;5036843;28;20095;-66
2021/07/11 03:37:59;;;;;;;11.35;5.25;;;;;;;21.09;59.84;100058.38;5040469;28;20071;-66
2021/07/11 03:40:29;;;;;;;15.38;5.15;;;;;;;21.03;60.05;100055.81;5041651;28;20619;-65
2021/07/11 03:42:59;;;;;;;13.15;6.70;;;;;;;20.93;60.26;100050.66;5041606;28;20128;-66
2021/07/11 03:45:28;;;;;;;15.73;6.25;;;;;;;20.91;60.23;100058.72;5034735;28;20140;-66
2021/07/11 03:48:02;;;;;;;12.20;5.57;;;;;;;20.80;60.20;100044.22;5048961;28;20140;-68
2021/07/11 03:50:30;;;;;;;9.65;5.00;;;;;;;20.87;59.95;100060.63;5036907;28;20095;-66
2021/07/11 03:53:02;;;;;;;15.43;6.35;;;;;;;20.85;60.39;100053.66;5049037;28;20465;-66
2021/07/11 03:55:32;;;;;;;17.30;6.95;;;;;;;20.83;60.62;100045.53;5037422;28;20131;-68
2021/07/11 03:58:00;;;;;;;9.43;6.15;;;;;;;20.78;60.73;100048.59;5035916;28;20129;-69
2021/07/11 04:00:28;;;;;;;12.27;6.38;;;;;;;20.78;60.66;100048.59;5035732;28;20565;-67
2021/07/11 04:02:56;;;;;;;7.63;5.43;;;;;;;20.89;60.63;100066.78;5045471;28;20056;-67
2021/07/11 04:05:28;;;;;;;15.25;5.70;;;;;;;20.68;60.38;100029.25;5039540;28;20041;-67
2021/07/11 04:07:55;;;;;;;17.60;6.43;;;;;;;20.90;60.94;100070.44;5043302;28;20090;-67
2021/07/11 04:10:25;;;;;;;19.27;7.40;;;;;;;20.93;60.90;100075.41;5039634;28;20524;-66
2021/07/11 04:12:57;;;;;;;11.85;5.22;;;;;;;20.87;60.75;100065.50;5037874;28;20128;-64
2021/07/11 04:15:24;;;;;;;11.90;5.75;;;;;;;20.83;60.85;100068.22;5036333;28;20077;-61
2021/07/11 04:17:57;;;;;;;12.65;5.88;;;;;;;20.93;60.80;100079.06;5034959;28;20124;-64
2021/07/11 04:20:27;;;;;;;11.70;6.22;;;;;;;20.82;60.66;100073.06;5037494;28;20051;-69
2021/07/11 04:22:56;;;;;;;;;;;;;;;20.80;60.68;100095.31;5047409;28;20436;-69
2021/07/11 04:25:24;;;;;;;14.68;5.32;;;;;;;20.77;60.79;100079.00;5044734;28;19933;-69
2021/07/11 04:27:53;;;;;;;11.25;6.28;;;;;;;20.86;60.70;100086.56;5047645;28;20120;-64
2021/07/11 04:30:20;;;;;;;13.35;5.95;;;;;;;20.86;60.91;100092.22;5047391;28;20080;-62
2021/07/11 04:32:48;;;;;;;11.43;5.68;;;;;;;20.89;60.92;100086.66;5045738;28;20124;-61
2021/07/11 04:35:16;;;;;;;14.48;6.65;;;;;;;20.87;60.98;100082.50;5033008;28;20469;-63
2021/07/11 04:37:43;;;;;;;9.32;6.15;;;;;;;20.84;61.01;100084.06;5045123;28;20080;-62
2021/07/11 04:40:10;;;;;;;17.60;6.10;;;;;;;20.85;61.21;100077.19;5034527;28;20073;-62
2021/07/11 04:42:37;;;;;;;11.00;5.43;;;;;;;20.88;61.23;100101.19;5037889;28;20549;-63
2021/07/11 04:45:05;;;;;;;17.63;6.10;;;;;;;20.89;61.16;100103.69;5035460;28;20279;-63
2021/07/11 04:47:32;;;;;;;16.45;6.20;;;;;;;20.87;61.09;100105.22;5033883;28;20468;-63
2021/07/11 04:49:59;;;;;;;11.48;5.78;;;;;;;20.78;61.41;100094.00;5040528;28;20195;-63
2021/07/11 04:52:26;;;;;;;15.80;6.38;;;;;;;20.11;61.40;100017.03;5044028;28;20128;-63
2021/07/11 04:54:53;;;;;;;11.73;5.97;;;;;;;20.58;61.42;100105.22;5049032;28;20251;-61
2021/07/11 04:57:21;;;;;;;15.48;6.13;;;;;;;20.61;61.36;100129.16;5042690;28;20132;-61
2021/07/11 04:59:48;;;;;;;13.50;6.35;;;;;;;20.55;61.93;100130.63;5046173;28;20410;-63
2021/07/11 05:02:15;;;;;;;19.17;7.10;;;;;;;20.50;61.79;100130.84;5038658;28;20129;-63
2021/07/11 05:04:42;;;;;;;16.17;6.13;;;;;;;20.35;62.16;100121.88;5035890;28;20511;-63
2021/07/11 05:07:09;;;;;;;14.65;6.40;;;;;;;20.41;62.30;100132.97;5034155;28;20132;-61
2021/07/11 05:09:35;;;;;;;18.92;7.20;;;;;;;20.28;62.41;100123.69;5045204;28;20132;-64
2021/07/11 05:12:02;;;;;;;23.50;7.18;;;;;;;20.26;62.25;100131.69;5045730;28;20128;-63
2021/07/11 05:14:29;;;;;;;22.27;7.75;;;;;;;20.32;62.52;100147.28;5037710;28;20049;-63
2021/07/11 05:16:56;;;;;;;29.00;9.13;;;;;;;20.28;62.50;100141.50;5035928;28;20497;-63
2021/07/11 05:19:23;;;;;;;26.70;8.40;;;;;;;20.00;62.56;100096.06;5045067;28;20550;-63
2021/07/11 05:21:50;;;;;;;26.08;8.18;;;;;;;20.25;62.45;100132.88;5046564;28;20128;-61
2021/07/11 05:24:17;;;;;;;29.80;7.47;;;;;;;20.06;62.67;100093.78;5044732;28;20087;-60
2021/07/11 05:26:43;;;;;;;27.38;7.90;;;;;;;20.04;62.62;100097.00;5051478;28;20128;-61
2021/07/11 05:29:10;;;;;;;24.60;8.90;;;;;;;20.24;62.67;100129.22;5044077;28;20045;-65
2021/07/11 05:31:37;;;;;;;23.45;7.65;;;;;;;20.12;62.13;100112.22;5034824;28;20422;-62
2021/07/11 05:34:04;;;;;;;21.83;7.22;;;;;;;20.21;62.40;100141.28;5039885;28;20103;-65
2021/07/11 05:36:31;;;;;;;18.80;6.45;;;;;;;20.22;62.53;100142.09;5045120;28;20489;-66
2021/07/11 05:38:58;;;;;;;38.47;8.77;;;;;;;20.19;62.50;100148.47;5049799;28;20092;-63
2021/07/11 05:41:25;;;;;;;18.77;7.78;;;;;;;20.21;62.37;100138.44;5035509;28;20505;-64
2021/07/11 05:43:52;;;;;;;29.88;7.75;;;;;;;20.17;62.53;100112.00;5039348;28;20124;-68
2021/07/11 05:46:19;;;;;;;22.00;8.02;;;;;;;20.34;62.46;100122.22;5068914;28;20128;-73
2021/07/11 05:48:45;;;;;;;17.92;7.63;;;;;;;20.35;61.94;100146.59;5049676;28;20056;-62
2021/07/11 05:51:12;;;;;;;20.45;7.20;;;;;;;20.30;62.06;100155.31;5042380;28;20588;-62
2021/07/11 05:53:39;;;;;;;24.33;7.93;;;;;;;20.31;62.05;100157.00;5038877;28;20099;-62
2021/07/11 05:56:06;;;;;;;22.85;7.82;;;;;;;20.45;62.12;100162.28;5032132;28;20532;-61
2021/07/11 05:58:33;;;;;;;24.83;7.38;;;;;;;20.38;61.95;100145.06;5032501;28;20132;-59
2021/07/11 06:01:00;;;;;;;21.55;7.20;;;;;;;20.49;61.92;100144.19;5035628;28;20569;-67
2021/07/11 06:03:27;;;;;;;24.33;6.95;;;;;;;20.45;61.97;100146.09;5044447;28;20488;-68
2021/07/11 06:05:54;;;;;;;16.77;7.57;;;;;;;20.50;62.01;100162.88;5046987;28;20124;-61
2021/07/11 06:08:21;;;;;;;24.95;7.30;;;;;;;20.50;61.97;100177.06;5039813;28;20041;-62
2021/07/11 06:10:52;;;;;;;14.45;7.75;;;;;;;20.46;61.94;100158.25;5048737;28;20374;-62
2021/07/11 06:13:20;;;;;;;15.98;6.80;;;;;;;20.51;62.19;100170.22;5037375;28;20072;-61
2021/07/11 06:15:47;;;;;;;17.70;7.82;;;;;;;20.45;62.36;100154.59;5041192;28;20051;-62
2021/07/11 06:18:14;;;;;;;20.33;7.80;;;;;;;20.52;62.47;100152.03;5036588;28;20047;-62
2021/07/11 06:20:42;;;;;;;17.48;7.53;;;;;;;20.78;62.04;100162.94;5037536;28;20041;-61
2021/07/11 06:23:09;;;;;;;26.38;8.30;;;;;;;20.92;61.90;100162.56;5042996;28;20080;-60
2021/07/11 06:25:37;;;;;;;10.88;6.80;;;;;;;21.10;61.62;100153.75;5049925;28;20144;-61
2021/07/11 06:28:05;;;;;;;17.17;7.15;;;;;;;21.10;61.55;100151.72;5036481;28;20557;-61
2021/07/11 06:30:32;;;;;;;16.30;6.97;;;;;;;21.29;61.43;100179.44;5037823;28;20488;-62
2021/07/11 06:32:58;;;;;;;15.68;7.65;;;;;;;21.52;60.96;100189.06;5045994;28;20041;-68
2021/07/11 06:35:28;;;;;;;16.67;6.53;;;;;;;21.70;60.36;100172.47;5037045;28;20096;-63
2021/07/11 06:37:54;;;;;;;15.02;7.55;;;;;;;21.92;60.10;100168.19;5037381;28;20077;-63
2021/07/11 06:40:24;;;;;;;11.95;5.88;;;;;;;22.05;60.04;100170.94;5032030;28;20053;-64
2021/07/11 06:42:52;;;;;;;16.67;6.55;;;;;;;22.10;59.70;100162.13;5034435;28;20128;-64
2021/07/11 06:45:19;;;;;;;17.75;7.18;;;;;;;21.96;59.78;100112.25;5045735;28;20092;-65
2021/07/11 06:47:46;;;;;;;14.05;6.63;;;;;;;22.36;59.38;100148.19;5035689;28;20240;-65
2021/07/11 06:50:14;;;;;;;15.05;8.13;;;;;;;22.60;58.93;100152.81;5038480;28;20050;-63
2021/07/11 06:52:43;;;;;;;15.90;7.72;;;;;;;22.62;58.77;100152.44;5037440;28;20553;-64
2021/07/11 06:55:11;;;;;;;15.85;6.63;;;;;;;22.68;58.46;100128.19;5042360;28;20060;-64
2021/07/11 06:57:41;;;;;;;12.52;7.60;;;;;;;22.92;58.05;100150.69;5041516;28;20562;-64
2021/07/11 07:00:11;;;;;;;17.23;7.25;;;;;;;23.05;57.43;100150.56;5034141;28;20069;-64
2021/07/11 07:02:38;;;;;;;;;;;;;;;23.12;58.12;100153.56;5033364;28;20174;-63
2021/07/11 07:05:06;;;;;;;13.20;6.18;;;;;;;23.29;57.41;100150.22;5036687;28;20044;-63
2021/07/11 07:07:35;;;;;;;12.35;7.55;;;;;;;23.52;57.31;100157.97;5046559;28;20572;-63
2021/07/11 07:10:09;;;;;;;23.98;13.18;;;;;;;23.76;56.79;100146.28;5032229;28;20107;-64
2021/07/11 07:12:37;;;;;;;21.80;11.02;;;;;;;23.81;56.54;100148.78;5037975;28;20080;-64
2021/07/11 07:15:06;;;;;;;19.48;10.75;;;;;;;23.66;56.65;100141.16;5031094;28;20057;-64
2021/07/11 07:17:33;;;;;;;21.40;12.02;;;;;;;23.74;56.00;100142.97;5033103;28;20141;-62
2021/07/11 07:20:00;;;;;;;18.30;10.32;;;;;;;23.67;55.89;100094.34;5034142;28;20052;-65
2021/07/11 07:22:27;;;;;;;23.50;13.68;;;;;;;23.91;55.57;100092.34;5031239;28;20049;-65
2021/07/11 07:24:54;;;;;;;26.55;13.40;;;;;;;24.54;54.72;100155.31;5034936;28;20124;-65
2021/07/11 07:27:21;;;;;;;18.58;12.25;;;;;;;24.88;54.35;100138.22;5038664;28;20168;-66
2021/07/11 07:29:47;;;;;;;20.10;9.45;;;;;;;25.29;53.58;100150.59;5071811;28;20123;-66
2021/07/11 07:32:14;;;;;;;15.18;8.75;;;;;;;25.53;53.33;100145.56;5040896;28;20503;-65
2021/07/11 07:34:41;;;;;;;19.33;8.02;;;;;;;25.92;52.42;100159.47;5042418;28;20090;-65
2021/07/11 07:37:08;;;;;;;14.02;7.50;;;;;;;26.10;51.83;100151.88;5045509;28;20059;-65
2021/07/11 07:39:35;;;;;;;17.90;8.88;;;;;;;26.37;50.95;100145.94;5043457;28;20099;-65
2021/07/11 07:42:03;;;;;;;21.67;8.13;;;;;;;26.66;50.30;100150.66;5041166;28;20137;-66
2021/07/11 07:44:30;;;;;;;13.80;7.78;;;;;;;26.81;50.20;100145.03;5035729;28;20581;-66
2021/07/11 07:46:57;;;;;;;12.20;6.18;;;;;;;27.09;50.00;100144.34;5049976;28;20076;-66
2021/07/11 07:49:24;;;;;;;12.55;7.25;;;;;;;27.56;49.13;100151.88;5051158;28;20049;-65
2021/07/11 07:51:52;;;;;;;13.77;6.35;;;;;;;27.97;48.44;100162.25;5037947;28;20131;-66
2021/07/11 07:54:19;;;;;;;13.15;6.45;;;;;;;28.30;47.69;100155.25;5049185;28;20434;-64
2021/07/11 07:56:46;;;;;;;9.98;6.22;;;;;;;28.50;46.85;100153.63;5036435;28;20077;-67
2021/07/11 07:59:12;;;;;;;15.57;6.00;;;;;;;28.72;46.72;100165.09;5045896;28;20128;-66
2021/07/11 08:01:39;;;;;;;10.00;5.38;;;;;;;28.76;46.36;100160.13;5046684;28;20124;-68
2021/07/11 08:04:09;;;;;;;17.98;7.35;;;;;;;28.96;46.09;100169.94;5039991;28;20045;-73
2021/07/11 08:06:38;;;;;;;12.88;6.22;;;;;;;29.13;45.95;100187.53;5037061;28;20136;-70
2021/07/11 08:09:06;;;;;;;9.97;6.20;;;;;;;28.99;45.58;100139.50;5036870;28;20391;-69
2021/07/11 08:11:33;;;;;;;11.95;6.18;;;;;;;29.46;45.11;100187.00;5038514;28;20136;-71
2021/07/11 08:14:00;;;;;;;12.93;6.13;;;;;;;29.77;44.75;100190.13;5038820;28;20088;-68
2021/07/11 08:16:27;;;;;;;10.95;6.10;;;;;;;30.12;44.16;100182.50;5041375;28;20401;-71
2021/07/11 08:18:54;;;;;;;11.00;5.65;;;;;;;30.14;43.50;100180.00;5042246;28;20076;-70
2021/07/11 08:21:22;;;;;;;10.48;5.78;;;;;;;30.21;43.34;100171.34;5033838;28;20100;-71
2021/07/11 08:23:49;;;;;;;12.75;6.97;;;;;;;30.42;42.96;100174.03;5041563;28;20052;-71
2021/07/11 08:26:16;;;;;;;12.18;5.45;;;;;;;30.73;42.97;100179.91;5045858;28;20077;-70
2021/07/11 08:28:43;;;;;;;12.85;6.28;;;;;;;31.03;42.16;100172.59;5049066;28;20132;-71
2021/07/11 08:31:10;;;;;;;12.38;6.35;;;;;;;31.29;41.41;100174.75;5035047;28;20084;-71
2021/07/11 08:33:37;;;;;;;15.77;6.25;;;;;;;31.29;41.59;100179.72;5034495;28;20132;-71
2021/07/11 08:36:04;;;;;;;12.95;6.45;;;;;;;31.34;41.15;100182.94;5034927;28;20053;-71
2021/07/11 08:38:31;;;;;;;11.05;5.93;;;;;;;31.61;41.16;100202.38;5035000;28;20141;-70
2021/07/11 08:40:57;;;;;;;10.85;6.28;;;;;;;31.72;40.64;100179.97;5035281;28;20132;-71
2021/07/11 08:43:24;;;;;;;10.63;6.60;;;;;;;31.86;40.52;100156.66;5034730;28;20076;-71
2021/07/11 08:45:51;;;;;;;10.85;6.22;;;;;;;31.83;40.51;100191.34;5035025;28;20487;-71
2021/07/11 08:48:18;;;;;;;8.27;5.53;;;;;;;31.90;39.95;100181.78;5034505;28;20056;-72
2021/07/11 08:50:45;;;;;;;11.93;6.22;;;;;;;32.17;40.13;100199.09;5034724;28;20136;-72
2021/07/11 08:53:14;;;;;;;12.93;6.28;;;;;;;32.41;39.16;100197.06;5040930;28;20049;-72
2021/07/11 08:55:42;;;;;;;13.60;5.85;;;;;;;32.62;38.68;100202.50;5046582;28;20080;-71
2021/07/11 08:58:13;;;;;;;11.85;5.90;;;;;;;32.82;38.49;100190.16;5035090;28;20088;-72
2021/07/11 09:00:40;;;;;;;8.48;5.07;;;;;;;33.01;38.54;100203.84;5034462;28;20136;-71
2021/07/11 09:03:07;;;;;;;8.82;5.57;;;;;;;33.12;37.79;100194.97;5034720;28;20531;-71
2021/07/11 09:05:39;;;;;;;9.43;5.25;;;;;;;33.29;37.83;100187.19;5034398;28;20053;-71
2021/07/11 09:08:11;;;;;;;14.38;5.88;;;;;;;33.10;37.61;100146.25;5054181;28;20045;-72
2021/07/11 09:10:40;;;;;;;9.30;4.85;;;;;;;33.32;37.34;100186.28;5053110;28;20128;-72
2021/07/11 09:13:12;;;;;;;10.98;6.32;;;;;;;33.35;37.28;100165.13;5034262;28;20502;-71
2021/07/11 09:15:42;;;;;;;17.88;6.15;;;;;;;33.57;37.48;100192.38;5034240;28;20037;-70
2021/07/11 09:18:10;;;;;;;12.50;6.35;;;;;;;33.65;37.24;100211.22;5040687;28;20135;-71
2021/07/11 09:21:00;;;;;;;11.07;6.22;;;;;;;33.59;37.20;100201.44;5054122;28;20044;-70
2021/07/11 09:23:31;;;;;;;10.93;5.30;;;;;;;33.60;36.95;100205.94;5051111;28;20129;-70
2021/07/11 09:26:11;;;;;;;10.98;6.03;;;;;;;33.68;37.14;100210.34;5053014;28;20068;-70
2021/07/11 09:28:44;;;;;;;13.15;6.13;;;;;;;33.71;36.80;100203.66;5053738;28;20091;-71
2021/07/11 09:31:16;;;;;;;8.25;4.90;;;;;;;33.66;36.84;100207.06;5046609;28;20049;-69
2021/07/11 09:33:59;;;;;;;11.43;5.03;;;;;;;33.76;36.43;100201.47;5050335;28;20045;-69
2021/07/11 09:36:27;;;;;;;12.88;5.05;;;;;;;34.05;36.08;100199.56;5053683;28;20489;-69
2021/07/11 09:38:58;;;;;;;11.65;5.25;;;;;;;34.16;35.88;100203.03;5037189;28;20053;-69
2021/07/11 09:41:27;;;;;;;10.65;5.35;;;;;;;34.13;35.43;100203.94;5033659;28;20165;-68
2021/07/11 09:43:58;;;;;;;13.10;5.95;;;;;;;34.17;35.44;100187.25;5048809;28;20052;-69
2021/07/11 09:46:26;;;;;;;10.93;6.40;;;;;;;34.46;35.24;100206.81;5032342;28;20621;-69
2021/07/11 09:48:54;;;;;;;12.30;5.00;;;;;;;34.61;35.19;100213.13;5033054;28;20049;-69
2021/07/11 09:51:28;;;;;;;8.60;4.70;;;;;;;34.56;34.76;100202.03;5033609;28;20574;-70
2021/07/11 09:54:11;;;;;;;12.43;5.82;;;;;;;34.53;34.92;100212.50;5032252;28;20451;-70
2021/07/11 09:56:43;;;;;;;14.57;5.78;;;;;;;34.60;34.50;100228.88;5033153;28;20494;-69
2021/07/11 09:59:13;;;;;;;13.40;4.80;;;;;;;34.67;34.31;100223.72;5033362;28;20084;-70
2021/07/11 10:01:41;;;;;;;10.77;5.00;;;;;;;34.70;34.18;100221.16;5032200;28;20113;-70
2021/07/11 10:04:09;;;;;;;;;;;;;;;34.48;35.67;100220.88;5033982;28;20444;-70
2021/07/11 10:06:38;;;;;;;11.27;5.95;;;;;;;34.75;34.52;100223.53;5033548;28;19956;-70
2021/07/11 10:09:07;;;;;;;8.95;4.00;;;;;;;34.77;34.18;100220.97;5033513;28;20050;-71
2021/07/11 10:11:34;;;;;;;8.82;4.78;;;;;;;34.90;34.32;100224.75;5033095;28;20081;-70
2021/07/11 10:14:01;;;;;;;6.95;4.70;;;;;;;34.93;33.88;100229.63;5033102;28;20453;-70
2021/07/11 10:16:29;;;;;;;10.32;4.65;;;;;;;34.92;33.41;100206.91;5031774;28;20041;-69
2021/07/11 10:18:57;;;;;;;9.63;4.43;;;;;;;35.14;33.44;100220.34;5032772;28;20049;-70
2021/07/11 10:21:34;;;;;;;10.13;4.55;;;;;;;35.26;33.59;100223.78;5042281;28;20508;-71
2021/07/11 10:24:02;;;;;;;11.38;4.60;;;;;;;35.33;32.92;100229.38;5040147;28;20124;-70
2021/07/11 10:26:40;;;;;;;8.35;4.72;;;;;;;35.22;33.15;100214.38;5042101;28;20080;-69
2021/07/11 10:29:18;;;;;;;7.23;4.80;;;;;;;35.03;33.31;100205.34;5032724;28;20090;-69
2021/07/11 10:31:51;;;;;;;6.30;3.95;;;;;;;35.05;33.08;100220.22;5032731;28;20072;-70
2021/07/11 10:34:26;;;;;;;10.02;5.13;;;;;;;34.98;33.59;100213.78;5032968;28;20107;-69
2021/07/11 10:36:53;;;;;;;9.93;4.38;;;;;;;35.05;33.22;100226.03;5032167;28;20037;-70
2021/07/11 10:39:20;;;;;;;7.55;4.15;;;;;;;35.16;32.86;100227.81;5032527;28;20084;-71
2021/07/11 10:41:49;;;;;;;8.18;4.00;;;;;;;34.93;32.81;100206.44;5033345;28;20132;-70
2021/07/11 10:44:20;;;;;;;4.47;3.60;;;;;;;34.84;32.55;100209.19;5032379;28;20509;-70
2021/07/11 10:46:54;;;;;;;8.57;4.00;;;;;;;34.58;32.95;100208.22;5038122;28;20125;-70
2021/07/11 10:49:30;;;;;;;8.13;3.97;;;;;;;34.30;33.34;100198.16;5032943;28;20049;-70
2021/07/11 10:52:08;;;;;;;6.40;4.18;;;;;;;34.47;33.32;100225.88;5052339;28;20071;-69
2021/07/11 10:54:37;;;;;;;10.35;4.55;;;;;;;34.40;33.29;100220.25;5052292;28;20516;-70
2021/07/11 10:57:06;;;;;;;5.78;3.78;;;;;;;34.49;32.86;100208.00;5046095;28;20124;-70
2021/07/11 10:59:39;;;;;;;6.63;4.10;;;;;;;34.46;33.12;100212.63;5048096;28;20078;-69
2021/07/11 11:02:15;;;;;;;6.32;3.75;;;;;;;34.51;33.08;100232.41;5052110;28;20049;-70
2021/07/11 11:04:43;;;;;;;5.03;3.38;;;;;;;34.46;33.06;100227.13;5052188;28;20501;-70
2021/07/11 11:07:16;;;;;;;6.95;3.75;;;;;;;34.39;32.99;100241.78;5042690;28;20049;-69
2021/07/11 11:09:47;;;;;;;8.13;3.65;;;;;;;34.38;32.61;100240.16;5031046;28;20049;-70
2021/07/11 11:12:32;;;;;;;8.55;4.75;;;;;;;34.25;33.03;100240.06;5032230;28;20045;-70
2021/07/11 11:15:01;;;;;;;5.65;3.38;;;;;;;34.45;33.08;100231.28;5031558;28;20379;-70
2021/07/11 11:17:33;;;;;;;7.68;3.10;;;;;;;34.39;33.29;100241.78;5030731;28;20069;-70
2021/07/11 11:20:06;;;;;;;4.18;3.08;;;;;;;34.20;33.27;100235.63;5031116;28;20069;-70
2021/07/11 11:22:34;;;;;;;4.80;4.07;;;;;;;34.29;33.27;100237.06;5035567;28;20045;-70
2021/07/11 11:25:03;;;;;;;8.93;3.38;;;;;;;34.22;33.05;100220.69;5037540;28;20073;-70
2021/07/11 11:27:39;;;;;;;7.90;3.45;;;;;;;34.44;33.00;100244.16;5030597;28;20049;-70